Time;durP1;ratioP1;P1;durP2;ratioP2;P2;SDS_P1;SDS_P2;PMS_P1;PMS_P2;Temp;Humidity;BMP_temperature;BMP_pressure;BME280_temperature;BME280_humidity;BME280_pressure;Samples;Min_cycle;Max_cycle;Signal;HPM_P1;HPM_P2
2022/03/30 00:01:59;;;;;;;28.30;20.50;;;10.70;60.20;;;;;;5029465;28;20107;-83
2022/03/30 00:04:24;;;;;;;27.15;19.58;;;10.80;60.40;;;;;;5046166;28;20067;-83
2022/03/30 00:06:50;;;;;;;29.45;21.05;;;10.80;60.30;;;;;;5028706;28;20036;-85
2022/03/30 00:09:16;;;;;;;27.75;19.80;;;10.70;60.10;;;;;;5030091;28;20079;-86
2022/03/30 00:11:42;;;;;;;27.90;20.60;;;10.70;60.30;;;;;;5022714;28;20041;-86
2022/03/30 00:14:08;;;;;;;28.45;20.17;;;10.70;60.10;;;;;;5022883;28;20037;-84
2022/03/30 00:16:34;;;;;;;28.95;20.77;;;10.70;60.10;;;;;;5024792;28;20032;-83
2022/03/30 00:19:00;;;;;;;31.15;21.50;;;10.70;60.10;;;;;;5024434;28;20071;-84
2022/03/30 00:21:26;;;;;;;32.10;21.00;;;10.70;60.10;;;;;;5013471;28;20053;-84
2022/03/30 00:23:52;;;;;;;29.38;21.38;;;10.70;60.00;;;;;;5029899;28;20060;-83
2022/03/30 00:26:19;;;;;;;31.67;20.92;;;10.70;60.00;;;;;;5044578;28;20381;-83
2022/03/30 00:28:45;;;;;;;33.63;22.08;;;10.70;59.90;;;;;;5029478;28;20099;-84
2022/03/30 00:31:12;;;;;;;31.77;22.88;;;10.70;59.90;;;;;;5045821;28;20419;-83
2022/03/30 00:33:38;;;;;;;33.35;23.02;;;10.70;59.90;;;;;;5028367;28;20025;-82
2022/03/30 00:36:05;;;;;;;32.20;22.55;;;10.70;59.90;;;;;;5046976;28;20036;-83
2022/03/30 00:38:30;;;;;;;35.15;23.85;;;10.70;59.80;;;;;;5047207;28;20392;-82
2022/03/30 00:40:56;;;;;;;35.33;22.77;;;10.70;59.80;;;;;;5045858;28;20086;-82
2022/03/30 00:43:22;;;;;;;36.17;23.25;;;10.70;59.80;;;;;;5023896;28;20056;-85
2022/03/30 00:45:48;;;;;;;34.92;22.83;;;10.70;59.80;;;;;;5044533;28;20033;-85
2022/03/30 00:48:14;;;;;;;36.92;24.10;;;10.60;59.60;;;;;;5028011;28;20040;-88
2022/03/30 00:50:40;;;;;;;34.83;24.17;;;10.60;59.50;;;;;;5012671;28;20061;-87
2022/03/30 00:53:06;;;;;;;33.58;23.88;;;10.60;59.50;;;;;;5028984;28;20116;-87
2022/03/30 00:55:32;;;;;;;33.55;23.25;;;10.60;59.50;;;;;;5045160;28;20116;-85
2022/03/30 00:57:58;;;;;;;34.67;23.27;;;10.60;59.50;;;;;;5023598;28;20077;-84
2022/03/30 01:00:25;;;;;;;31.58;21.73;;;10.60;59.40;;;;;;5025131;28;20037;-84
2022/03/30 01:02:53;;;;;;;32.08;21.38;;;10.60;59.40;;;;;;5020147;28;20029;-83
2022/03/30 01:05:19;;;;;;;32.75;22.88;;;10.70;59.60;;;;;;5024248;28;20488;-86
2022/03/30 01:07:45;;;;;;;31.45;22.38;;;10.60;59.40;;;;;;5029198;28;20127;-84
2022/03/30 01:10:13;;;;;;;35.75;23.85;;;10.60;59.40;;;;;;5007696;28;20143;-85
2022/03/30 01:12:40;;;;;;;34.03;22.15;;;10.60;59.50;;;;;;5037236;28;20106;-84
2022/03/30 01:15:11;;;;;;;35.78;21.85;;;10.60;59.40;;;;;;5044511;28;20116;-85
2022/03/30 01:17:37;;;;;;;32.70;22.60;;;10.60;59.40;;;;;;5023347;28;20095;-83
2022/03/30 01:20:05;;;;;;;34.80;21.95;;;10.60;59.30;;;;;;5014709;28;20053;-83
2022/03/30 01:22:31;;;;;;;31.95;21.83;;;10.60;59.30;;;;;;4993054;28;20031;-89
2022/03/30 01:24:56;;;;;;;34.15;21.88;;;10.50;59.10;;;;;;5023909;28;20135;-87
2022/03/30 01:27:22;;;;;;;31.45;21.70;;;10.60;59.30;;;;;;5026010;28;20048;-86
2022/03/30 01:32:34;;;;;;;31.75;21.05;;;10.50;59.10;;;;;;5030162;28;20060;-86
2022/03/30 01:35:03;;;;;;;29.85;20.55;;;10.50;59.00;;;;;;5043042;28;20131;-87
2022/03/30 01:37:30;;;;;;;30.67;20.92;;;10.50;59.00;;;;;;5062720;28;20047;-86
2022/03/30 01:39:57;;;;;;;31.63;21.13;;;10.50;59.00;;;;;;5058739;28;20060;-87
2022/03/30 01:42:24;;;;;;;31.25;20.13;;;10.50;59.00;;;;;;5038309;28;20085;-86
2022/03/30 01:44:51;;;;;;;31.20;21.08;;;10.50;59.00;;;;;;5050048;28;20126;-84
2022/03/30 01:47:17;;;;;;;32.92;21.58;;;10.50;59.00;;;;;;5052074;28;20021;-85
2022/03/30 01:49:44;;;;;;;30.42;20.42;;;10.50;59.00;;;;;;5042589;28;20094;-84
2022/03/30 01:52:10;;;;;;;32.05;21.17;;;10.50;59.00;;;;;;5054945;28;20052;-85
2022/03/30 01:54:39;;;;;;;29.73;20.45;;;10.50;59.00;;;;;;5019212;28;20116;-83
2022/03/30 01:57:06;;;;;;;29.02;20.13;;;10.40;58.90;;;;;;5010360;28;20025;-85
2022/03/30 01:59:33;;;;;;;27.55;18.17;;;10.50;59.10;;;;;;5015740;28;20025;-84
2022/03/30 02:02:00;;;;;;;28.83;17.92;;;10.40;58.90;;;;;;5029939;28;20392;-85
2022/03/30 02:04:26;;;;;;;28.30;19.65;;;10.40;58.80;;;;;;5005022;28;20083;-84
2022/03/30 02:06:52;;;;;;;26.67;18.77;;;10.40;59.40;;;;;;5029537;28;20445;-84
2022/03/30 02:09:18;;;;;;;25.38;18.60;;;10.40;58.80;;;;;;5028999;28;20040;-85
2022/03/30 02:11:44;;;;;;;27.52;18.08;;;10.40;58.90;;;;;;5028496;28;20655;-84
2022/03/30 02:14:10;;;;;;;24.90;18.48;;;10.40;59.40;;;;;;5010097;28;20021;-84
2022/03/30 02:16:36;;;;;;;24.50;17.33;;;10.40;58.80;;;;;;5025852;28;20044;-84
2022/03/30 02:19:02;;;;;;;26.10;19.55;;;10.40;58.80;;;;;;5031650;28;20603;-85
2022/03/30 02:21:28;;;;;;;23.73;17.10;;;10.40;58.80;;;;;;5029173;28;20080;-83
2022/03/30 02:23:54;;;;;;;26.00;18.30;;;10.40;58.80;;;;;;5029965;28;20068;-83
2022/03/30 02:26:20;;;;;;;24.77;17.45;;;10.30;58.60;;;;;;5046560;28;20404;-83
2022/03/30 02:28:53;;;;;;;26.13;18.05;;;10.30;58.60;;;;;;5047602;28;20103;-83
2022/03/30 02:31:19;;;;;;;25.08;17.92;;;10.40;58.80;;;;;;5045263;28;20071;-83
2022/03/30 02:33:46;;;;;;;23.90;17.83;;;10.30;58.60;;;;;;5047142;28;20568;-83
2022/03/30 02:36:13;;;;;;;25.25;17.25;;;10.30;58.70;;;;;;5035586;28;20029;-83
2022/03/30 02:38:39;;;;;;;24.98;17.48;;;10.30;58.70;;;;;;5018215;28;20029;-83
2022/03/30 02:41:06;;;;;;;27.88;17.77;;;10.30;58.60;;;;;;5044688;28;20029;-83
2022/03/30 02:43:33;;;;;;;25.98;18.88;;;10.30;58.70;;;;;;5047434;28;20029;-83
2022/03/30 02:45:59;;;;;;;26.27;18.80;;;10.20;58.50;;;;;;5014077;28;20075;-83
2022/03/30 02:48:32;;;;;;;26.63;19.05;;;10.20;58.50;;;;;;5012474;28;20163;-83
2022/03/30 02:51:02;;;;;;;25.98;19.15;;;10.20;58.50;;;;;;5045688;28;20036;-84
2022/03/30 02:53:28;;;;;;;26.30;18.48;;;10.20;58.50;;;;;;5046336;28;20491;-83
2022/03/30 02:55:54;;;;;;;25.52;18.65;;;10.20;58.50;;;;;;5047092;28;20059;-85
2022/03/30 02:58:20;;;;;;;26.27;18.17;;;10.20;58.50;;;;;;5028179;28;20051;-85
2022/03/30 03:00:46;;;;;;;23.45;18.25;;;10.20;58.50;;;;;;5022352;28;20041;-84
2022/03/30 03:03:12;;;;;;;27.38;19.83;;;10.20;58.50;;;;;;5038041;28;20473;-84
2022/03/30 03:05:41;;;;;;;24.88;18.98;;;10.20;58.50;;;;;;5031814;28;20129;-83
2022/03/30 03:08:08;;;;;;;28.15;19.00;;;10.20;58.50;;;;;;5044651;28;20029;-83
2022/03/30 03:10:37;;;;;;;25.63;18.48;;;10.20;58.50;;;;;;5050943;28;20033;-83
2022/03/30 03:13:04;;;;;;;26.83;18.73;;;10.20;58.40;;;;;;5052607;28;20045;-82
2022/03/30 03:15:31;;;;;;;25.95;19.30;;;10.20;58.40;;;;;;5054416;28;20053;-83
2022/03/30 03:17:57;;;;;;;24.50;18.58;;;10.20;58.40;;;;;;5052711;28;20547;-83
2022/03/30 03:20:25;;;;;;;26.63;18.45;;;10.20;58.40;;;;;;5053454;28;20076;-84
2022/03/30 03:22:51;;;;;;;28.88;19.30;;;10.20;58.40;;;;;;5034619;28;20021;-83
2022/03/30 03:25:17;;;;;;;26.55;19.23;;;10.20;58.40;;;;;;5053474;28;20033;-84
2022/03/30 03:27:43;;;;;;;25.85;18.88;;;10.20;58.40;;;;;;5043324;28;20026;-84
2022/03/30 03:30:10;;;;;;;28.80;21.75;;;10.10;58.20;;;;;;5052544;28;20040;-84
2022/03/30 03:32:36;;;;;;;28.50;20.38;;;10.10;58.10;;;;;;5050484;28;20029;-83
2022/03/30 03:35:03;;;;;;;27.60;19.83;;;10.10;58.20;;;;;;5052277;28;20060;-84
2022/03/30 03:37:29;;;;;;;32.25;20.60;;;10.10;58.20;;;;;;5050880;28;20083;-86
2022/03/30 03:39:55;;;;;;;29.98;21.90;;;10.10;58.20;;;;;;5046006;28;20609;-86
2022/03/30 03:42:21;;;;;;;27.60;21.10;;;10.10;58.10;;;;;;5051063;28;20130;-84
2022/03/30 03:44:47;;;;;;;26.88;19.55;;;10.10;58.10;;;;;;5051632;28;20117;-85
2022/03/30 03:47:13;;;;;;;26.33;19.67;;;10.10;58.10;;;;;;5048868;28;20587;-85
2022/03/30 03:49:40;;;;;;;28.02;20.40;;;10.10;58.20;;;;;;5050507;28;20036;-86
2022/03/30 03:52:06;;;;;;;25.65;20.08;;;10.10;58.10;;;;;;5049289;28;20033;-86
2022/03/30 03:54:33;;;;;;;26.98;20.42;;;10.00;57.90;;;;;;5032708;28;20037;-86
2022/03/30 03:56:59;;;;;;;29.75;20.48;;;10.00;57.90;;;;;;5050299;28;20031;-86
2022/03/30 03:59:25;;;;;;;26.90;21.30;;;10.00;57.90;;;;;;5032512;28;20086;-86
2022/03/30 04:01:51;;;;;;;30.55;22.08;;;10.00;58.50;;;;;;5049552;28;20136;-86
2022/03/30 04:04:18;;;;;;;28.02;20.27;;;10.00;57.90;;;;;;5032143;28;20555;-85
2022/03/30 04:06:43;;;;;;;28.67;21.23;;;10.00;57.80;;;;;;5032227;28;20025;-85
2022/03/30 04:09:09;;;;;;;28.90;20.83;;;10.00;57.80;;;;;;5024608;28;20020;-85
2022/03/30 04:11:35;;;;;;;30.58;21.55;;;10.00;57.80;;;;;;5031969;28;20041;-83
2022/03/30 04:14:01;;;;;;;26.95;19.98;;;10.00;57.80;;;;;;5050280;28;20127;-83
2022/03/30 04:16:27;;;;;;;27.92;21.65;;;10.00;57.80;;;;;;5046856;28;20068;-83
2022/03/30 04:18:53;;;;;;;29.38;21.55;;;10.00;57.80;;;;;;5048113;28;20033;-82
2022/03/30 04:21:19;;;;;;;28.80;21.60;;;10.00;57.80;;;;;;5049058;28;20080;-87
2022/03/30 04:23:45;;;;;;;27.08;20.92;;;10.00;57.70;;;;;;5048658;28;20021;-89
2022/03/30 04:26:11;;;;;;;27.08;20.52;;;10.00;57.70;;;;;;5031385;28;20559;-84
2022/03/30 04:28:40;;;;;;;26.85;21.48;;;10.00;57.70;;;;;;5049075;28;20124;-84
2022/03/30 04:31:11;;;;;;;29.00;21.10;;;10.00;57.70;;;;;;5031644;28;20044;-86
2022/03/30 04:33:38;;;;;;;27.90;21.35;;;10.00;57.70;;;;;;5048085;28;20029;-84
2022/03/30 04:36:05;;;;;;;28.65;22.38;;;9.90;57.60;;;;;;5049487;28;20043;-85
2022/03/30 04:38:32;;;;;;;26.10;20.10;;;10.00;57.70;;;;;;5049084;28;20140;-84
2022/03/30 04:40:59;;;;;;;29.67;21.50;;;9.90;57.60;;;;;;5042677;28;20025;-85
2022/03/30 04:43:24;;;;;;;25.85;21.50;;;9.90;57.60;;;;;;5049770;28;20524;-86
2022/03/30 04:45:50;;;;;;;27.88;20.90;;;9.90;57.50;;;;;;5030663;28;20067;-84
2022/03/30 04:48:16;;;;;;;26.38;20.77;;;9.90;57.50;;;;;;5028238;28;20032;-84
2022/03/30 04:50:42;;;;;;;27.95;21.13;;;9.90;57.50;;;;;;5028879;28;20037;-85
2022/03/30 04:53:08;;;;;;;28.48;20.23;;;9.90;57.50;;;;;;5011965;28;20021;-85
2022/03/30 04:55:36;;;;;;;26.92;21.30;;;9.90;57.50;;;;;;5028442;28;20491;-84
2022/03/30 04:58:03;;;;;;;27.65;20.83;;;9.90;57.50;;;;;;5027432;28;20056;-85
2022/03/30 05:00:29;;;;;;;27.67;22.23;;;9.90;57.50;;;;;;5029194;28;20151;-84
2022/03/30 05:02:55;;;;;;;28.92;22.13;;;9.90;58.10;;;;;;5009139;28;20056;-83
2022/03/30 05:05:21;;;;;;;29.48;21.08;;;9.90;57.50;;;;;;5046645;28;20068;-84
2022/03/30 05:07:47;;;;;;;24.80;20.33;;;9.90;57.50;;;;;;5050585;28;20436;-86
2022/03/30 05:10:14;;;;;;;27.65;21.33;;;9.90;57.50;;;;;;5058556;28;20539;-87
2022/03/30 05:12:40;;;;;;;26.05;19.58;;;9.90;57.40;;;;;;5031687;28;20045;-87
2022/03/30 05:15:09;;;;;;;26.23;21.05;;;9.90;57.40;;;;;;5046358;28;20287;-87
2022/03/30 05:17:39;;;;;;;26.63;20.17;;;9.90;57.40;;;;;;5045992;28;20400;-85
2022/03/30 05:20:06;;;;;;;29.92;21.52;;;9.90;57.40;;;;;;5019011;28;20068;-84
2022/03/30 05:22:33;;;;;;;25.88;20.05;;;9.90;57.40;;;;;;5045224;28;20032;-81
2022/03/30 05:25:00;;;;;;;27.92;21.77;;;9.80;57.20;;;;;;5043220;28;20025;-82
2022/03/30 05:27:26;;;;;;;28.98;22.88;;;9.80;57.20;;;;;;5042434;28;20111;-81
2022/03/30 05:29:52;;;;;;;28.45;21.00;;;9.80;57.20;;;;;;5048409;28;20082;-78
2022/03/30 05:32:18;;;;;;;22.48;18.45;;;9.80;57.20;;;;;;5043216;28;20080;-78
2022/03/30 05:34:44;;;;;;;26.90;20.83;;;9.80;57.20;;;;;;5025722;28;20021;-78
2022/03/30 05:37:10;;;;;;;29.20;21.80;;;9.80;57.20;;;;;;5043532;28;20052;-82
2022/03/30 05:39:41;;;;;;;28.30;22.70;;;9.70;57.00;;;;;;5047175;28;20519;-79
2022/03/30 05:42:11;;;;;;;30.65;23.10;;;9.80;57.30;;;;;;5047979;28;20032;-79
2022/03/30 05:44:38;;;;;;;30.70;22.67;;;9.80;57.20;;;;;;5049332;28;20147;-78
2022/03/30 05:47:05;;;;;;;28.92;21.13;;;9.80;57.20;;;;;;5034708;28;20100;-80
2022/03/30 05:49:31;;;;;;;26.35;21.80;;;9.80;57.20;;;;;;5048393;28;20071;-79
2022/03/30 05:51:56;;;;;;;31.45;23.35;;;9.80;57.30;;;;;;5042037;28;20454;-80
2022/03/30 05:54:22;;;;;;;27.92;21.40;;;9.80;57.30;;;;;;5053596;28;20099;-80
2022/03/30 05:57:00;;;;;;;25.92;20.38;;;9.80;57.20;;;;;;5028885;28;20339;-80
2022/03/30 05:59:27;;;;;;;27.27;22.20;;;9.80;57.20;;;;;;5040732;28;20094;-80
2022/03/30 06:01:53;;;;;;;25.13;20.90;;;9.80;57.20;;;;;;5042631;28;20031;-79
2022/03/30 06:04:19;;;;;;;27.58;20.48;;;9.90;57.40;;;;;;5043846;28;20056;-78
2022/03/30 06:06:44;;;;;;;28.45;21.77;;;9.90;57.40;;;;;;5030593;28;20060;-81
2022/03/30 06:09:10;;;;;;;23.58;19.95;;;9.90;57.40;;;;;;5052820;28;20035;-80
2022/03/30 06:11:36;;;;;;;26.70;21.48;;;9.90;57.40;;;;;;5031585;28;20064;-79
2022/03/30 06:14:02;;;;;;;26.50;21.33;;;9.90;57.30;;;;;;5038234;28;20025;-79
2022/03/30 06:16:29;;;;;;;28.08;22.17;;;9.90;57.90;;;;;;5041917;28;20060;-78
2022/03/30 06:18:55;;;;;;;28.25;21.52;;;9.90;57.30;;;;;;5042523;28;20025;-77
2022/03/30 06:21:21;;;;;;;29.55;22.20;;;9.90;57.30;;;;;;5045724;28;20045;-80
2022/03/30 06:23:47;;;;;;;25.70;20.67;;;10.00;58.00;;;;;;5031219;28;20032;-82
2022/03/30 06:26:14;;;;;;;28.67;21.67;;;10.00;57.40;;;;;;5033436;28;20037;-82
2022/03/30 06:28:40;;;;;;;26.73;21.92;;;10.00;57.40;;;;;;5033223;28;20050;-81
2022/03/30 06:31:06;;;;;;;25.58;22.10;;;10.00;57.90;;;;;;5042776;28;20595;-79
2022/03/30 06:33:32;;;;;;;26.65;20.98;;;10.00;57.40;;;;;;5036227;28;20508;-79
2022/03/30 06:35:58;;;;;;;30.52;22.75;;;10.00;57.30;;;;;;5037027;28;20121;-80
2022/03/30 06:38:25;;;;;;;26.73;21.25;;;10.00;57.30;;;;;;5035973;28;20052;-78
2022/03/30 06:40:51;;;;;;;28.52;22.08;;;10.00;57.20;;;;;;5039439;28;20416;-79
2022/03/30 06:43:17;;;;;;;28.10;21.83;;;10.10;57.40;;;;;;5048478;28;20116;-79
2022/03/30 06:45:46;;;;;;;25.65;21.00;;;10.00;57.10;;;;;;5049288;28;20434;-79
2022/03/30 06:48:12;;;;;;;28.42;22.45;;;10.10;57.30;;;;;;5042729;28;20083;-78
2022/03/30 06:50:39;;;;;;;28.17;21.75;;;10.10;57.80;;;;;;5042740;28;20120;-79
2022/03/30 06:53:10;;;;;;;25.42;20.80;;;10.10;57.10;;;;;;5043036;28;20086;-78
2022/03/30 06:55:38;;;;;;;29.67;22.25;;;10.20;57.30;;;;;;5032649;28;20131;-79
2022/03/30 06:58:05;;;;;;;26.35;21.08;;;10.20;57.20;;;;;;5028769;28;20335;-78
2022/03/30 07:00:31;;;;;;;27.23;21.67;;;10.30;57.30;;;;;;5037548;28;20036;-79
2022/03/30 07:02:57;;;;;;;24.83;20.52;;;10.30;57.20;;;;;;5049324;28;20035;-77
2022/03/30 07:05:23;;;;;;;24.42;19.88;;;10.30;57.00;;;;;;5033398;28;20032;-78
2022/03/30 07:10:33;;;;;;;27.08;20.90;;;10.40;57.10;;;;;;5040015;28;20033;-78
2022/03/30 07:13:03;;;;;;;26.90;21.83;;;10.50;57.10;;;;;;5020236;28;20074;-78
2022/03/30 07:15:30;;;;;;;25.77;20.67;;;10.60;57.20;;;;;;5042120;28;20103;-83
2022/03/30 07:17:58;;;;;;;26.95;22.05;;;10.60;57.10;;;;;;5038746;28;20363;-80
2022/03/30 07:20:26;;;;;;;28.30;19.83;;;10.60;57.00;;;;;;5035270;28;20048;-79
2022/03/30 07:22:52;;;;;;;25.15;20.95;;;10.70;57.10;;;;;;5026285;28;20424;-80
2022/03/30 07:25:20;;;;;;;29.52;20.98;;;10.70;57.10;;;;;;5037527;28;20025;-79
2022/03/30 07:27:49;;;;;;;29.15;22.20;;;10.70;57.00;;;;;;5028797;28;20504;-79
2022/03/30 07:30:16;;;;;;;27.23;20.42;;;10.80;57.00;;;;;;5018962;28;20064;-81
2022/03/30 07:32:45;;;;;;;26.00;20.95;;;10.80;56.90;;;;;;4999715;28;20037;-81
2022/03/30 07:35:13;;;;;;;29.25;20.83;;;10.90;57.00;;;;;;5029762;28;20025;-85
2022/03/30 07:37:39;;;;;;;27.70;21.45;;;10.90;56.90;;;;;;5029609;28;20061;-81
2022/03/30 07:40:08;;;;;;;27.65;21.23;;;11.00;56.90;;;;;;5032332;28;20029;-82
2022/03/30 07:42:35;;;;;;;23.52;19.88;;;11.00;56.80;;;;;;5038541;28;20033;-84
2022/03/30 07:45:01;;;;;;;23.90;20.23;;;11.10;56.90;;;;;;5042150;28;20092;-82
2022/03/30 07:47:27;;;;;;;25.38;20.85;;;11.10;56.80;;;;;;5040083;28;20036;-81
2022/03/30 07:49:53;;;;;;;28.52;20.80;;;11.20;56.80;;;;;;5032333;28;20057;-81
2022/03/30 07:52:20;;;;;;;28.33;20.77;;;11.20;56.70;;;;;;5034889;28;20564;-81
2022/03/30 07:54:47;;;;;;;28.55;22.30;;;11.30;56.70;;;;;;5039706;28;20033;-80
2022/03/30 07:57:13;;;;;;;27.25;21.63;;;11.40;56.80;;;;;;5036172;28;20114;-79
2022/03/30 07:59:39;;;;;;;26.98;20.25;;;11.40;56.70;;;;;;5043634;28;20298;-81
2022/03/30 08:02:05;;;;;;;25.65;21.63;;;11.50;56.70;;;;;;5041722;28;20193;-81
2022/03/30 08:04:31;;;;;;;28.98;22.40;;;11.60;56.70;;;;;;5040340;28;20060;-81
2022/03/30 08:06:57;;;;;;;27.55;21.90;;;11.60;56.60;;;;;;5045741;28;20372;-82
2022/03/30 08:09:23;;;;;;;28.50;20.83;;;11.60;56.40;;;;;;5040963;28;20095;-80
2022/03/30 08:11:49;;;;;;;28.08;21.80;;;11.70;56.50;;;;;;5043973;28;20048;-80
2022/03/30 08:14:15;;;;;;;29.20;20.75;;;11.80;56.50;;;;;;5045176;28;20040;-80
2022/03/30 08:16:41;;;;;;;28.23;22.42;;;11.90;56.50;;;;;;5044344;28;20033;-80
2022/03/30 08:19:08;;;;;;;28.95;23.08;;;11.90;56.30;;;;;;5037750;28;20119;-80
2022/03/30 08:24:20;;;;;;;31.00;23.92;;;12.10;56.20;;;;;;5054547;28;20125;-84
2022/03/30 08:26:46;;;;;;;30.15;23.05;;;12.20;56.10;;;;;;5047751;28;20133;-82
2022/03/30 08:29:12;;;;;;;27.90;21.88;;;12.30;56.10;;;;;;5053370;28;20029;-81
2022/03/30 08:31:38;;;;;;;28.73;22.30;;;12.40;56.00;;;;;;5061166;28;20194;-85
2022/03/30 08:34:04;;;;;;;28.98;22.50;;;12.50;56.00;;;;;;5043676;28;20030;-85
2022/03/30 08:36:31;;;;;;;27.17;21.67;;;12.60;55.90;;;;;;5019591;28;20064;-85
2022/03/30 08:38:58;;;;;;;31.63;24.25;;;12.70;55.90;;;;;;5049987;28;20032;-80
2022/03/30 08:41:25;;;;;;;33.58;26.30;;;12.80;55.90;;;;;;5040748;28;20118;-81
2022/03/30 08:43:52;;;;;;;30.95;23.90;;;12.90;55.80;;;;;;5027119;28;20479;-81
2022/03/30 08:46:18;;;;;;;30.90;23.50;;;12.90;55.30;;;;;;5058707;28;20044;-81
2022/03/30 08:48:44;;;;;;;30.27;23.55;;;13.00;55.40;;;;;;5034198;28;20043;-79
2022/03/30 08:51:11;;;;;;;29.48;23.08;;;13.10;55.40;;;;;;5045276;28;20359;-81
2022/03/30 08:53:37;;;;;;;27.15;22.25;;;13.20;55.40;;;;;;5045258;28;20059;-78
2022/03/30 08:56:04;;;;;;;29.35;24.25;;;13.30;55.30;;;;;;5040777;28;20033;-81
2022/03/30 08:58:30;;;;;;;28.80;24.17;;;13.40;55.30;;;;;;5058816;28;20236;-81
2022/03/30 09:01:11;;;;;;;30.40;23.13;;;13.50;55.30;;;;;;5076867;28;20017;-81
2022/03/30 09:03:58;;;;;;;27.88;22.95;;;13.50;55.00;;;;;;5060038;28;20037;-81
2022/03/30 09:06:29;;;;;;;27.08;21.98;;;13.60;55.00;;;;;;5057391;28;20033;-81
2022/03/30 09:08:58;;;;;;;29.48;23.80;;;13.70;55.00;;;;;;5067523;28;20104;-81
2022/03/30 09:11:30;;;;;;;29.25;24.33;;;13.90;55.10;;;;;;5076600;28;20025;-81
2022/03/30 09:14:00;;;;;;;26.58;22.42;;;14.00;55.00;;;;;;5066564;28;20029;-80
2022/03/30 09:16:39;;;;;;;26.05;23.20;;;14.10;54.90;;;;;;5052793;28;20056;-81
2022/03/30 09:19:08;;;;;;;30.02;23.58;;;14.20;54.70;;;;;;5059696;28;20333;-81
2022/03/30 09:21:40;;;;;;;25.98;21.67;;;14.40;54.90;;;;;;5053616;28;20480;-80
2022/03/30 09:24:07;;;;;;;29.02;25.25;;;14.50;54.70;;;;;;5037451;28;20462;-80
2022/03/30 09:26:33;;;;;;;27.15;22.92;;;14.60;54.70;;;;;;5040374;28;20040;-80
2022/03/30 09:28:59;;;;;;;26.50;22.88;;;14.70;54.50;;;;;;5034824;28;20061;-80
2022/03/30 09:31:27;;;;;;;27.52;22.90;;;14.90;55.20;;;;;;5031654;28;20093;-80
2022/03/30 09:33:53;;;;;;;27.55;23.13;;;15.00;54.50;;;;;;5027153;28;20040;-80
2022/03/30 09:36:30;;;;;;;29.02;23.80;;;15.10;54.40;;;;;;5052850;28;20036;-81
2022/03/30 09:38:56;;;;;;;27.92;23.38;;;15.20;54.20;;;;;;5049944;28;20084;-83
2022/03/30 09:41:21;;;;;;;30.30;23.05;;;15.40;54.40;;;;;;5047292;28;20409;-79
2022/03/30 09:43:47;;;;;;;27.98;24.98;;;15.40;54.10;;;;;;5047854;28;20033;-79
2022/03/30 09:46:15;;;;;;;26.08;23.27;;;15.50;54.10;;;;;;5044100;28;20033;-81
2022/03/30 09:48:52;;;;;;;27.88;23.70;;;15.60;54.00;;;;;;5042077;28;20447;-79
2022/03/30 09:51:24;;;;;;;27.52;24.50;;;15.70;53.80;;;;;;5051070;28;20174;-80
2022/03/30 09:53:51;;;;;;;30.50;24.03;;;15.90;54.00;;;;;;5047438;28;20055;-90
2022/03/30 09:56:22;;;;;;;28.13;24.63;;;16.00;53.90;;;;;;5048935;28;20029;-83
2022/03/30 09:58:48;;;;;;;31.73;23.73;;;16.10;53.70;;;;;;5047657;28;20399;-83
2022/03/30 10:01:19;;;;;;;24.98;21.33;;;16.20;53.60;;;;;;5031753;28;20384;-83
2022/03/30 10:03:52;;;;;;;30.95;24.67;;;16.30;53.60;;;;;;5049739;28;20037;-83
2022/03/30 10:06:19;;;;;;;;;;;16.30;53.30;;;;;;5046166;28;20036;-83
2022/03/30 10:08:48;;;;;;;29.10;22.95;;;16.40;53.50;;;;;;5043240;28;19962;-83
2022/03/30 10:11:17;;;;;;;26.80;22.88;;;16.40;53.50;;;;;;5043882;28;20091;-83
2022/03/30 10:13:45;;;;;;;28.20;23.08;;;16.50;53.40;;;;;;5043560;28;20151;-84
2022/03/30 10:16:13;;;;;;;31.17;23.98;;;16.60;53.30;;;;;;5039456;28;20033;-84
2022/03/30 10:18:40;;;;;;;26.50;23.58;;;16.70;53.20;;;;;;5031069;28;20049;-82
2022/03/30 10:21:25;;;;;;;26.50;23.35;;;16.80;53.20;;;;;;5025260;28;20128;-83
2022/03/30 10:23:54;;;;;;;28.55;23.08;;;16.90;52.80;;;;;;5042011;28;20041;-83
2022/03/30 10:26:52;;;;;;;29.38;23.15;;;16.90;52.80;;;;;;5027421;28;20112;-82
2022/03/30 10:29:22;;;;;;;28.50;24.77;;;17.00;52.50;;;;;;5043020;28;20028;-83
2022/03/30 10:32:09;;;;;;;28.30;24.77;;;17.10;52.70;;;;;;5037300;28;20393;-82
2022/03/30 10:35:00;;;;;;;26.63;21.60;;;17.30;52.60;;;;;;5043020;28;20029;-83
2022/03/30 10:37:36;;;;;;;26.35;23.38;;;17.40;52.60;;;;;;5047386;28;20059;-83
2022/03/30 10:40:03;;;;;;;25.90;22.42;;;17.60;52.70;;;;;;5045707;28;20123;-84
2022/03/30 10:42:47;;;;;;;29.30;24.45;;;17.70;52.50;;;;;;5042891;28;20040;-84
2022/03/30 10:45:28;;;;;;;28.15;22.92;;;17.90;52.20;;;;;;5042330;28;20033;-84
2022/03/30 10:48:36;;;;;;;27.30;23.52;;;18.00;52.20;;;;;;5026461;28;20118;-85
2022/03/30 10:51:08;;;;;;;27.30;23.27;;;18.20;52.00;;;;;;5032225;28;20400;-84
2022/03/30 10:53:34;;;;;;;27.27;22.53;;;18.40;52.20;;;;;;5043369;28;20643;-83
2022/03/30 10:56:15;;;;;;;26.63;23.35;;;18.50;52.20;;;;;;5040501;28;20295;-82
2022/03/30 10:58:55;;;;;;;31.17;22.80;;;18.60;51.90;;;;;;5051035;28;20454;-81
2022/03/30 11:01:25;;;;;;;23.58;21.08;;;18.70;51.90;;;;;;5057934;28;20571;-84
2022/03/30 11:03:58;;;;;;;26.27;22.67;;;18.80;51.90;;;;;;5061898;28;20390;-82
2022/03/30 11:06:24;;;;;;;;;;;18.90;51.70;;;;;;5057294;28;20040;-84
2022/03/30 11:08:51;;;;;;;25.00;22.30;;;19.00;51.80;;;;;;5057477;28;19919;-83
2022/03/30 11:11:27;;;;;;;26.30;23.42;;;19.10;51.90;;;;;;5051786;28;20116;-81
2022/03/30 11:14:25;;;;;;;24.27;21.65;;;19.20;51.60;;;;;;5050054;28;20037;-83
2022/03/30 11:16:54;;;;;;;26.10;22.65;;;19.20;51.30;;;;;;5033586;28;20029;-80
2022/03/30 11:19:26;;;;;;;28.10;25.02;;;19.10;51.40;;;;;;5054551;28;20032;-81
2022/03/30 11:21:54;;;;;;;28.55;24.15;;;19.10;51.40;;;;;;5042254;28;20067;-82
2022/03/30 11:24:24;;;;;;;33.53;24.88;;;19.00;51.10;;;;;;5059663;28;20060;-83
2022/03/30 11:26:50;;;;;;;25.33;22.60;;;19.10;51.10;;;;;;5056500;28;20119;-80
2022/03/30 11:29:52;;;;;;;27.95;23.50;;;19.30;51.30;;;;;;5063918;28;20036;-82
2022/03/30 11:32:24;;;;;;;28.27;23.77;;;19.50;50.80;;;;;;5030891;28;20040;-81
2022/03/30 11:34:58;;;;;;;27.40;24.50;;;19.70;50.90;;;;;;5015580;28;20391;-81
2022/03/30 11:37:32;;;;;;;27.52;24.52;;;19.90;50.90;;;;;;5052021;28;20269;-80
2022/03/30 11:40:13;;;;;;;26.30;23.45;;;20.10;50.90;;;;;;5055098;28;20065;-84
2022/03/30 11:42:42;;;;;;;26.90;24.00;;;20.20;50.70;;;;;;5045888;28;20459;-83
2022/03/30 11:45:14;;;;;;;26.98;23.52;;;20.40;50.70;;;;;;5059009;28;20576;-83
2022/03/30 11:47:41;;;;;;;27.17;24.27;;;20.40;50.50;;;;;;5027600;28;20055;-82
2022/03/30 11:50:08;;;;;;;28.90;25.80;;;20.40;50.30;;;;;;5047838;28;20070;-83
2022/03/30 11:52:34;;;;;;;28.50;25.25;;;20.40;50.20;;;;;;5050778;28;20053;-83
2022/03/30 11:55:00;;;;;;;28.85;25.58;;;20.30;50.00;;;;;;5031594;28;20513;-83
2022/03/30 11:57:26;;;;;;;27.80;24.80;;;20.30;50.00;;;;;;5040350;28;20510;-83
2022/03/30 12:00:00;;;;;;;25.50;22.75;;;20.30;50.00;;;;;;5029140;28;20033;-83
2022/03/30 12:02:27;;;;;;;27.13;24.17;;;20.40;49.90;;;;;;5033171;28;20404;-82
2022/03/30 12:04:55;;;;;;;27.92;24.95;;;20.50;50.00;;;;;;5044790;28;20104;-80
2022/03/30 12:07:21;;;;;;;28.83;25.20;;;20.70;50.00;;;;;;5048862;28;20458;-79
2022/03/30 12:09:49;;;;;;;27.10;23.48;;;20.80;49.70;;;;;;5054279;28;20098;-80
2022/03/30 12:12:49;;;;;;;27.27;23.45;;;21.00;49.70;;;;;;5045605;28;20060;-79
2022/03/30 12:15:17;;;;;;;26.05;23.35;;;21.20;49.40;;;;;;5007936;28;20055;-82
2022/03/30 12:17:53;;;;;;;26.83;24.00;;;21.30;49.60;;;;;;5038458;28;20032;-80
2022/03/30 12:20:25;;;;;;;27.33;24.25;;;21.40;49.40;;;;;;5039645;28;20554;-84
2022/03/30 12:23:00;;;;;;;27.47;24.63;;;21.50;49.40;;;;;;5044865;28;20032;-80
2022/03/30 12:25:34;;;;;;;31.17;24.73;;;21.60;49.40;;;;;;5057510;28;20045;-80
2022/03/30 12:28:01;;;;;;;28.27;23.63;;;21.70;49.30;;;;;;5038898;28;20036;-79
2022/03/30 12:30:30;;;;;;;28.42;24.52;;;21.80;49.30;;;;;;5059232;28;20041;-80
2022/03/30 12:32:56;;;;;;;28.58;25.63;;;21.80;49.10;;;;;;5054099;28;20475;-80
2022/03/30 12:35:24;;;;;;;28.30;24.83;;;21.80;49.10;;;;;;5044185;28;20041;-80
2022/03/30 12:38:07;;;;;;;26.33;23.63;;;21.80;49.00;;;;;;5040106;28;20097;-80
2022/03/30 12:40:39;;;;;;;27.98;24.85;;;21.80;48.60;;;;;;5036537;28;20033;-80
2022/03/30 12:43:06;;;;;;;25.85;23.17;;;21.70;48.50;;;;;;5042851;28;20025;-79